sensor_id;sensor_type;location;lat;lon;timestamp;pressure;altitude;pressure_sealevel;temperature;humidity
27144;BME280;14672;50.250;8.312;2023-08-20T00:01:44;99245.94;;;23.99;74.10
27144;BME280;14672;50.250;8.312;2023-08-20T00:04:11;99246.66;;;24.05;73.68
27144;BME280;14672;50.250;8.312;2023-08-20T00:06:38;99240.97;;;23.94;73.86
27144;BME280;14672;50.250;8.312;2023-08-20T00:09:04;99258.25;;;24.05;73.47
27144;BME280;14672;50.250;8.312;2023-08-20T00:11:32;99263.53;;;24.07;73.63
27144;BME280;14672;50.250;8.312;2023-08-20T00:14:00;99255.31;;;24.16;73.12
27144;BME280;14672;50.250;8.312;2023-08-20T00:16:26;99259.41;;;23.97;74.14
27144;BME280;14672;50.250;8.312;2023-08-20T00:18:53;99251.13;;;24.06;73.97
27144;BME280;14672;50.250;8.312;2023-08-20T00:21:19;99244.72;;;24.13;73.35
27144;BME280;14672;50.250;8.312;2023-08-20T00:23:45;99239.44;;;24.17;73.32
27144;BME280;14672;50.250;8.312;2023-08-20T00:26:11;99244.22;;;24.09;73.60
27144;BME280;14672;50.250;8.312;2023-08-20T00:28:37;99248.72;;;24.10;73.48
27144;BME280;14672;50.250;8.312;2023-08-20T00:31:04;99248.28;;;24.01;74.34
27144;BME280;14672;50.250;8.312;2023-08-20T00:33:31;99249.63;;;24.00;74.42
27144;BME280;14672;50.250;8.312;2023-08-20T00:35:57;99236.19;;;23.97;73.76
27144;BME280;14672;50.250;8.312;2023-08-20T00:38:23;99243.84;;;23.94;74.17
27144;BME280;14672;50.250;8.312;2023-08-20T00:40:49;99238.53;;;23.98;73.74
27144;BME280;14672;50.250;8.312;2023-08-20T00:43:14;99242.06;;;23.91;74.19
27144;BME280;14672;50.250;8.312;2023-08-20T00:45:41;99241.78;;;23.89;73.61
27144;BME280;14672;50.250;8.312;2023-08-20T00:48:09;99237.69;;;23.79;73.78
27144;BME280;14672;50.250;8.312;2023-08-20T00:50:35;99232.47;;;23.72;73.76
27144;BME280;14672;50.250;8.312;2023-08-20T00:53:01;99231.09;;;23.78;73.64
27144;BME280;14672;50.250;8.312;2023-08-20T00:55:28;99241.97;;;23.72;73.64
27144;BME280;14672;50.250;8.312;2023-08-20T00:57:54;99237.00;;;23.67;73.10
27144;BME280;14672;50.250;8.312;2023-08-20T01:00:21;99233.94;;;23.54;73.42
27144;BME280;14672;50.250;8.312;2023-08-20T01:02:48;99237.59;;;23.60;73.21
27144;BME280;14672;50.250;8.312;2023-08-20T01:05:15;99241.03;;;23.53;73.81
27144;BME280;14672;50.250;8.312;2023-08-20T01:10:59;99240.53;;;23.55;74.09
27144;BME280;14672;50.250;8.312;2023-08-20T01:13:27;99238.16;;;23.53;72.97
27144;BME280;14672;50.250;8.312;2023-08-20T01:15:54;99240.63;;;23.44;73.71
27144;BME280;14672;50.250;8.312;2023-08-20T01:18:19;99242.97;;;23.45;74.13
27144;BME280;14672;50.250;8.312;2023-08-20T01:20:52;99231.84;;;23.49;73.43
27144;BME280;14672;50.250;8.312;2023-08-20T01:29:12;99238.78;;;23.35;74.41
27144;BME280;14672;50.250;8.312;2023-08-20T01:31:40;99239.03;;;23.43;73.70
27144;BME280;14672;50.250;8.312;2023-08-20T01:34:06;99241.94;;;23.37;73.73
27144;BME280;14672;50.250;8.312;2023-08-20T01:36:32;99245.97;;;23.28;74.48
27144;BME280;14672;50.250;8.312;2023-08-20T01:38:57;99247.88;;;23.20;74.85
27144;BME280;14672;50.250;8.312;2023-08-20T01:41:29;99262.06;;;23.24;74.89
27144;BME280;14672;50.250;8.312;2023-08-20T01:43:55;99259.47;;;23.20;74.43
27144;BME280;14672;50.250;8.312;2023-08-20T01:46:21;99265.00;;;23.18;73.94
27144;BME280;14672;50.250;8.312;2023-08-20T01:48:46;99251.66;;;22.99;74.32
27144;BME280;14672;50.250;8.312;2023-08-20T01:51:12;99259.78;;;23.11;74.23
27144;BME280;14672;50.250;8.312;2023-08-20T01:53:38;99270.88;;;23.07;74.00
27144;BME280;14672;50.250;8.312;2023-08-20T01:56:04;99262.69;;;23.06;74.01
27144;BME280;14672;50.250;8.312;2023-08-20T01:58:30;99283.03;;;23.00;73.90
27144;BME280;14672;50.250;8.312;2023-08-20T02:00:57;99282.22;;;23.00;74.37
27144;BME280;14672;50.250;8.312;2023-08-20T02:03:23;99283.25;;;23.02;73.96
27144;BME280;14672;50.250;8.312;2023-08-20T02:05:49;99283.03;;;23.00;73.46
27144;BME280;14672;50.250;8.312;2023-08-20T02:08:15;99280.66;;;22.99;73.20
27144;BME280;14672;50.250;8.312;2023-08-20T02:10:40;99287.31;;;22.88;73.65
27144;BME280;14672;50.250;8.312;2023-08-20T02:13:07;99288.09;;;22.88;73.10
27144;BME280;14672;50.250;8.312;2023-08-20T02:15:33;99280.69;;;22.93;73.54
27144;BME280;14672;50.250;8.312;2023-08-20T02:17:58;99288.63;;;22.87;73.70
27144;BME280;14672;50.250;8.312;2023-08-20T02:20:26;99288.13;;;22.77;73.60
27144;BME280;14672;50.250;8.312;2023-08-20T02:22:52;99280.72;;;22.82;73.93
27144;BME280;14672;50.250;8.312;2023-08-20T02:25:19;99278.34;;;22.86;73.70
27144;BME280;14672;50.250;8.312;2023-08-20T02:27:45;99273.13;;;22.73;73.77
27144;BME280;14672;50.250;8.312;2023-08-20T02:30:11;99270.47;;;22.81;73.78
27144;BME280;14672;50.250;8.312;2023-08-20T02:32:39;99267.63;;;22.64;73.69
27144;BME280;14672;50.250;8.312;2023-08-20T02:35:05;99261.00;;;22.75;73.29
27144;BME280;14672;50.250;8.312;2023-08-20T02:37:34;99266.81;;;22.64;73.40
27144;BME280;14672;50.250;8.312;2023-08-20T02:40:00;99272.34;;;22.67;73.68
27144;BME280;14672;50.250;8.312;2023-08-20T02:42:26;99273.69;;;22.61;74.09
27144;BME280;14672;50.250;8.312;2023-08-20T02:44:51;99267.91;;;22.61;73.54
27144;BME280;14672;50.250;8.312;2023-08-20T02:47:17;99265.81;;;22.56;73.99
27144;BME280;14672;50.250;8.312;2023-08-20T02:49:43;99274.50;;;22.61;73.46
27144;BME280;14672;50.250;8.312;2023-08-20T02:52:09;99264.22;;;22.55;73.20
27144;BME280;14672;50.250;8.312;2023-08-20T02:54:34;99260.84;;;22.39;73.33
27144;BME280;14672;50.250;8.312;2023-08-20T02:57:00;99266.88;;;22.41;73.21
27144;BME280;14672;50.250;8.312;2023-08-20T02:59:26;99259.03;;;22.36;73.11
27144;BME280;14672;50.250;8.312;2023-08-20T03:01:52;99260.91;;;22.28;72.69
27144;BME280;14672;50.250;8.312;2023-08-20T03:04:17;99256.41;;;22.27;73.60
27144;BME280;14672;50.250;8.312;2023-08-20T03:06:44;99265.88;;;22.22;73.25
27144;BME280;14672;50.250;8.312;2023-08-20T03:09:09;99254.59;;;22.24;73.19
27144;BME280;14672;50.250;8.312;2023-08-20T03:11:35;99244.84;;;22.27;72.55
27144;BME280;14672;50.250;8.312;2023-08-20T03:14:01;99247.22;;;22.23;73.06
27144;BME280;14672;50.250;8.312;2023-08-20T03:16:27;99247.50;;;22.14;73.33
27144;BME280;14672;50.250;8.312;2023-08-20T03:18:53;99249.63;;;22.08;73.38
27144;BME280;14672;50.250;8.312;2023-08-20T03:21:22;99252.53;;;21.97;73.47
27144;BME280;14672;50.250;8.312;2023-08-20T03:23:47;99242.00;;;21.94;73.68
27144;BME280;14672;50.250;8.312;2023-08-20T03:26:13;99240.16;;;22.02;73.37
27144;BME280;14672;50.250;8.312;2023-08-20T03:28:39;99245.69;;;21.94;73.43
27144;BME280;14672;50.250;8.312;2023-08-20T03:31:04;99249.88;;;21.88;73.96
27144;BME280;14672;50.250;8.312;2023-08-20T03:33:30;99250.41;;;21.86;74.53
27144;BME280;14672;50.250;8.312;2023-08-20T03:35:57;99255.16;;;21.89;74.55
27144;BME280;14672;50.250;8.312;2023-08-20T03:38:23;99254.91;;;21.93;74.50
27144;BME280;14672;50.250;8.312;2023-08-20T03:40:49;99260.44;;;21.96;73.57
27144;BME280;14672;50.250;8.312;2023-08-20T03:43:15;99265.66;;;21.98;73.39
27144;BME280;14672;50.250;8.312;2023-08-20T03:45:41;99264.13;;;21.97;73.54
27144;BME280;14672;50.250;8.312;2023-08-20T03:48:07;99269.38;;;21.93;73.40
27144;BME280;14672;50.250;8.312;2023-08-20T03:50:33;99271.72;;;21.89;73.98
27144;BME280;14672;50.250;8.312;2023-08-20T03:52:59;99273.00;;;21.82;74.87
27144;BME280;14672;50.250;8.312;2023-08-20T03:55:24;99267.75;;;21.86;73.66
27144;BME280;14672;50.250;8.312;2023-08-20T03:57:50;99277.47;;;21.78;73.94
27144;BME280;14672;50.250;8.312;2023-08-20T04:00:16;99281.44;;;21.80;73.95
27144;BME280;14672;50.250;8.312;2023-08-20T04:02:42;99288.00;;;21.70;74.50
27144;BME280;14672;50.250;8.312;2023-08-20T04:05:07;99296.97;;;21.77;74.45
27144;BME280;14672;50.250;8.312;2023-08-20T04:07:35;99292.75;;;21.78;74.59
27144;BME280;14672;50.250;8.312;2023-08-20T04:10:00;99289.31;;;21.74;75.13
27144;BME280;14672;50.250;8.312;2023-08-20T04:12:26;99295.13;;;21.80;73.62
27144;BME280;14672;50.250;8.312;2023-08-20T04:14:52;99292.75;;;21.84;73.92
27144;BME280;14672;50.250;8.312;2023-08-20T04:17:18;99296.94;;;21.83;74.14
27144;BME280;14672;50.250;8.312;2023-08-20T04:19:44;99290.38;;;21.77;74.10
27144;BME280;14672;50.250;8.312;2023-08-20T04:22:09;99296.69;;;21.75;74.34
27144;BME280;14672;50.250;8.312;2023-08-20T04:24:35;99295.38;;;21.71;74.60
27144;BME280;14672;50.250;8.312;2023-08-20T04:27:01;99303.28;;;21.76;74.41
27144;BME280;14672;50.250;8.312;2023-08-20T04:29:27;99298.78;;;21.86;74.24
27144;BME280;14672;50.250;8.312;2023-08-20T04:31:53;99293.78;;;21.86;74.34
27144;BME280;14672;50.250;8.312;2023-08-20T04:34:18;99300.13;;;21.85;74.58
27144;BME280;14672;50.250;8.312;2023-08-20T04:36:44;99304.06;;;21.76;74.51
27144;BME280;14672;50.250;8.312;2023-08-20T04:39:10;99303.78;;;21.80;74.50
27144;BME280;14672;50.250;8.312;2023-08-20T04:41:35;99304.06;;;21.76;74.63
27144;BME280;14672;50.250;8.312;2023-08-20T04:44:01;99309.84;;;21.76;74.98
27144;BME280;14672;50.250;8.312;2023-08-20T04:46:27;99302.50;;;21.92;73.99
27144;BME280;14672;50.250;8.312;2023-08-20T04:48:54;99316.41;;;21.88;74.60
27144;BME280;14672;50.250;8.312;2023-08-20T04:51:19;99312.47;;;21.80;74.97
27144;BME280;14672;50.250;8.312;2023-08-20T04:53:45;99314.56;;;21.90;74.95
27144;BME280;14672;50.250;8.312;2023-08-20T04:56:12;99309.31;;;21.83;75.08
27144;BME280;14672;50.250;8.312;2023-08-20T04:58:38;99312.50;;;21.96;74.53
27144;BME280;14672;50.250;8.312;2023-08-20T05:01:04;99306.44;;;21.94;75.22
27144;BME280;14672;50.250;8.312;2023-08-20T05:03:31;99313.81;;;21.95;76.02
27144;BME280;14672;50.250;8.312;2023-08-20T05:05:57;99302.25;;;22.01;76.16
27144;BME280;14672;50.250;8.312;2023-08-20T05:08:22;99314.59;;;22.07;75.82
27144;BME280;14672;50.250;8.312;2023-08-20T05:10:50;99315.38;;;22.08;76.00
27144;BME280;14672;50.250;8.312;2023-08-20T05:13:17;99325.13;;;22.05;75.53
27144;BME280;14672;50.250;8.312;2023-08-20T05:15:43;99335.38;;;22.11;75.12
27144;BME280;14672;50.250;8.312;2023-08-20T05:18:08;99335.91;;;22.15;75.20
27144;BME280;14672;50.250;8.312;2023-08-20T05:20:34;99337.97;;;22.26;74.81
27144;BME280;14672;50.250;8.312;2023-08-20T05:23:00;99332.47;;;22.22;75.43
27144;BME280;14672;50.250;8.312;2023-08-20T05:25:25;99335.63;;;22.24;76.62
27144;BME280;14672;50.250;8.312;2023-08-20T05:27:51;99324.81;;;22.30;76.49
27144;BME280;14672;50.250;8.312;2023-08-20T05:30:17;99330.09;;;22.26;76.30
27144;BME280;14672;50.250;8.312;2023-08-20T05:32:43;99341.13;;;22.33;75.93
27144;BME280;14672;50.250;8.312;2023-08-20T05:35:09;99339.31;;;22.36;76.23
27144;BME280;14672;50.250;8.312;2023-08-20T05:37:35;99341.66;;;22.37;76.10
27144;BME280;14672;50.250;8.312;2023-08-20T05:40:00;99347.19;;;22.41;75.58
27144;BME280;14672;50.250;8.312;2023-08-20T05:42:26;99343.19;;;22.49;75.36
27144;BME280;14672;50.250;8.312;2023-08-20T05:44:52;99344.00;;;22.50;75.75
27144;BME280;14672;50.250;8.312;2023-08-20T05:47:18;99350.59;;;22.51;76.82
27144;BME280;14672;50.250;8.312;2023-08-20T05:49:44;99356.13;;;22.48;77.76
27144;BME280;14672;50.250;8.312;2023-08-20T05:52:10;99357.13;;;22.62;77.16
27144;BME280;14672;50.250;8.312;2023-08-20T05:54:35;99352.41;;;22.65;77.65
27144;BME280;14672;50.250;8.312;2023-08-20T05:57:01;99351.06;;;22.66;77.97
27144;BME280;14672;50.250;8.312;2023-08-20T05:59:27;99353.72;;;22.69;78.87
27144;BME280;14672;50.250;8.312;2023-08-20T06:01:53;99361.88;;;22.76;78.55
27144;BME280;14672;50.250;8.312;2023-08-20T06:04:20;99366.34;;;22.83;78.58
27144;BME280;14672;50.250;8.312;2023-08-20T06:06:49;99359.47;;;22.86;78.75
27144;BME280;14672;50.250;8.312;2023-08-20T06:09:15;99363.16;;;22.92;79.58
27144;BME280;14672;50.250;8.312;2023-08-20T06:11:41;99371.84;;;22.92;78.90
27144;BME280;14672;50.250;8.312;2023-08-20T06:14:07;99375.22;;;23.02;78.70
27144;BME280;14672;50.250;8.312;2023-08-20T06:16:32;99376.53;;;23.06;79.25
27144;BME280;14672;50.250;8.312;2023-08-20T06:18:58;99378.59;;;23.17;78.82
27144;BME280;14672;50.250;8.312;2023-08-20T06:21:27;99379.88;;;23.21;79.03
27144;BME280;14672;50.250;8.312;2023-08-20T06:23:53;99378.84;;;23.24;79.12
27144;BME280;14672;50.250;8.312;2023-08-20T06:26:18;99379.56;;;23.36;78.34
27144;BME280;14672;50.250;8.312;2023-08-20T06:28:46;99384.28;;;23.39;77.84
27144;BME280;14672;50.250;8.312;2023-08-20T06:31:11;99376.59;;;23.53;76.31
27144;BME280;14672;50.250;8.312;2023-08-20T06:33:37;99378.66;;;23.58;77.26
27144;BME280;14672;50.250;8.312;2023-08-20T06:36:04;99382.50;;;23.77;75.51
27144;BME280;14672;50.250;8.312;2023-08-20T06:38:29;99386.97;;;23.78;76.47
27144;BME280;14672;50.250;8.312;2023-08-20T06:40:56;99374.38;;;23.70;78.04
27144;BME280;14672;50.250;8.312;2023-08-20T06:43:22;99380.59;;;23.85;76.36
27144;BME280;14672;50.250;8.312;2023-08-20T06:45:47;99387.41;;;23.93;75.97
27144;BME280;14672;50.250;8.312;2023-08-20T06:48:13;99385.75;;;24.03;75.42
27144;BME280;14672;50.250;8.312;2023-08-20T06:50:41;99376.72;;;24.12;74.84
27144;BME280;14672;50.250;8.312;2023-08-20T06:53:07;99382.53;;;24.12;74.60
27144;BME280;14672;50.250;8.312;2023-08-20T06:55:32;99380.38;;;24.18;73.87
27144;BME280;14672;50.250;8.312;2023-08-20T06:57:58;99379.19;;;24.32;73.02
27144;BME280;14672;50.250;8.312;2023-08-20T07:00:24;99374.47;;;24.29;74.15
27144;BME280;14672;50.250;8.312;2023-08-20T07:02:49;99378.66;;;24.34;73.85
27144;BME280;14672;50.250;8.312;2023-08-20T07:05:15;99382.81;;;24.44;73.13
27144;BME280;14672;50.250;8.312;2023-08-20T07:07:42;99376.50;;;24.40;74.32
27144;BME280;14672;50.250;8.312;2023-08-20T07:10:08;99383.72;;;24.58;72.57
27144;BME280;14672;50.250;8.312;2023-08-20T07:12:34;99385.28;;;24.59;73.17
27144;BME280;14672;50.250;8.312;2023-08-20T07:14:59;99383.00;;;24.76;72.16
27144;BME280;14672;50.250;8.312;2023-08-20T07:17:25;99382.53;;;24.72;72.40
27144;BME280;14672;50.250;8.312;2023-08-20T07:19:51;99394.84;;;24.54;74.38
27144;BME280;14672;50.250;8.312;2023-08-20T07:22:16;99381.06;;;24.60;74.15
27144;BME280;14672;50.250;8.312;2023-08-20T07:24:42;99385.47;;;24.66;73.85
27144;BME280;14672;50.250;8.312;2023-08-20T07:27:08;99387.59;;;24.66;74.51
27144;BME280;14672;50.250;8.312;2023-08-20T07:29:38;99380.94;;;24.71;74.50
27144;BME280;14672;50.250;8.312;2023-08-20T07:32:04;99382.22;;;24.75;74.80
27144;BME280;14672;50.250;8.312;2023-08-20T07:34:30;99377.09;;;24.87;73.94
27144;BME280;14672;50.250;8.312;2023-08-20T07:37:00;99377.88;;;24.88;74.12
27144;BME280;14672;50.250;8.312;2023-08-20T07:39:27;99382.53;;;24.96;74.85
27144;BME280;14672;50.250;8.312;2023-08-20T07:41:52;99372.72;;;24.99;74.91
27144;BME280;14672;50.250;8.312;2023-08-20T07:44:18;99367.25;;;25.14;72.61
27144;BME280;14672;50.250;8.312;2023-08-20T07:46:44;99363.50;;;25.19;72.58
27144;BME280;14672;50.250;8.312;2023-08-20T07:49:09;99363.41;;;25.25;72.02
27144;BME280;14672;50.250;8.312;2023-08-20T07:51:35;99370.97;;;25.34;71.86
27144;BME280;14672;50.250;8.312;2023-08-20T07:54:01;99370.25;;;25.28;73.11
27144;BME280;14672;50.250;8.312;2023-08-20T07:56:27;99374.28;;;25.43;72.20
27144;BME280;14672;50.250;8.312;2023-08-20T07:58:52;99363.31;;;25.55;71.59
27144;BME280;14672;50.250;8.312;2023-08-20T08:01:21;99368.09;;;25.52;71.91
27144;BME280;14672;50.250;8.312;2023-08-20T08:03:48;99366.06;;;25.66;71.87
27144;BME280;14672;50.250;8.312;2023-08-20T08:06:13;99370.44;;;25.73;71.45
27144;BME280;14672;50.250;8.312;2023-08-20T08:08:43;99368.88;;;25.72;71.85
27144;BME280;14672;50.250;8.312;2023-08-20T08:11:10;99371.22;;;25.73;72.23
27144;BME280;14672;50.250;8.312;2023-08-20T08:13:35;99368.06;;;25.90;72.15
27144;BME280;14672;50.250;8.312;2023-08-20T08:16:01;99367.09;;;26.00;71.50
27144;BME280;14672;50.250;8.312;2023-08-20T08:18:27;99355.13;;;26.04;72.54
27144;BME280;14672;50.250;8.312;2023-08-20T08:20:53;99365.53;;;25.99;71.73
27144;BME280;14672;50.250;8.312;2023-08-20T08:23:19;99358.88;;;26.17;70.38
27144;BME280;14672;50.250;8.312;2023-08-20T08:25:45;99352.66;;;26.27;69.77
27144;BME280;14672;50.250;8.312;2023-08-20T08:28:14;99354.22;;;26.28;71.24
27144;BME280;14672;50.250;8.312;2023-08-20T08:30:40;99355.84;;;26.42;69.91
27144;BME280;14672;50.250;8.312;2023-08-20T08:33:06;99355.50;;;26.45;69.92
27144;BME280;14672;50.250;8.312;2023-08-20T08:35:32;99358.78;;;26.55;69.12
27144;BME280;14672;50.250;8.312;2023-08-20T08:37:58;99364.16;;;26.64;69.37
27144;BME280;14672;50.250;8.312;2023-08-20T08:40:28;99353.66;;;26.74;69.06
27144;BME280;14672;50.250;8.312;2023-08-20T08:42:55;99348.16;;;26.84;67.62
27144;BME280;14672;50.250;8.312;2023-08-20T08:45:21;99360.75;;;26.92;67.52
27144;BME280;14672;50.250;8.312;2023-08-20T08:47:48;99356.03;;;27.02;68.05
27144;BME280;14672;50.250;8.312;2023-08-20T08:50:14;99355.69;;;27.05;68.27
27144;BME280;14672;50.250;8.312;2023-08-20T08:52:41;99358.38;;;27.03;68.82
27144;BME280;14672;50.250;8.312;2023-08-20T08:55:08;99360.41;;;27.08;68.62
27144;BME280;14672;50.250;8.312;2023-08-20T08:57:38;99365.00;;;27.17;67.87
27144;BME280;14672;50.250;8.312;2023-08-20T09:00:05;99366.09;;;27.27;68.17
27144;BME280;14672;50.250;8.312;2023-08-20T09:02:31;99366.22;;;27.35;67.48
27144;BME280;14672;50.250;8.312;2023-08-20T09:04:58;99376.97;;;27.40;67.41
27144;BME280;14672;50.250;8.312;2023-08-20T09:07:24;99367.59;;;27.47;67.77
27144;BME280;14672;50.250;8.312;2023-08-20T09:09:50;99366.31;;;27.55;67.32
27144;BME280;14672;50.250;8.312;2023-08-20T09:12:17;99373.16;;;27.58;66.45
27144;BME280;14672;50.250;8.312;2023-08-20T09:14:51;99370.91;;;27.64;66.77
27144;BME280;14672;50.250;8.312;2023-08-20T09:17:18;99364.16;;;27.69;66.38
27144;BME280;14672;50.250;8.312;2023-08-20T09:19:46;99368.66;;;27.70;65.82
27144;BME280;14672;50.250;8.312;2023-08-20T09:22:12;99359.38;;;27.79;65.41
27144;BME280;14672;50.250;8.312;2023-08-20T09:24:56;99358.34;;;27.90;65.40
27144;BME280;14672;50.250;8.312;2023-08-20T09:27:23;99354.06;;;27.91;65.44
27144;BME280;14672;50.250;8.312;2023-08-20T09:29:54;99355.72;;;27.99;65.13
27144;BME280;14672;50.250;8.312;2023-08-20T09:32:23;99353.47;;;28.06;65.13
27144;BME280;14672;50.250;8.312;2023-08-20T09:34:51;99362.88;;;28.12;65.57
27144;BME280;14672;50.250;8.312;2023-08-20T09:37:19;99356.13;;;28.17;64.89
27144;BME280;14672;50.250;8.312;2023-08-20T09:39:46;99352.13;;;28.27;64.01
27144;BME280;14672;50.250;8.312;2023-08-20T09:42:13;99356.84;;;28.30;64.53
27144;BME280;14672;50.250;8.312;2023-08-20T09:44:42;99350.84;;;28.36;63.98
27144;BME280;14672;50.250;8.312;2023-08-20T09:47:13;99363.19;;;28.42;63.85
27144;BME280;14672;50.250;8.312;2023-08-20T09:49:45;99360.47;;;28.44;62.60
27144;BME280;14672;50.250;8.312;2023-08-20T09:52:17;99355.69;;;28.54;62.34
27144;BME280;14672;50.250;8.312;2023-08-20T09:55:08;99349.53;;;28.65;62.96
27144;BME280;14672;50.250;8.312;2023-08-20T09:57:41;99359.19;;;28.73;62.57
27144;BME280;14672;50.250;8.312;2023-08-20T10:00:09;99345.97;;;28.80;62.54
27144;BME280;14672;50.250;8.312;2023-08-20T10:02:36;99343.03;;;28.80;61.88
27144;BME280;14672;50.250;8.312;2023-08-20T10:05:06;99345.09;;;28.92;61.35
27144;BME280;14672;50.250;8.312;2023-08-20T10:07:34;99341.03;;;29.03;61.68
27144;BME280;14672;50.250;8.312;2023-08-20T10:10:06;99347.53;;;29.09;60.87
27144;BME280;14672;50.250;8.312;2023-08-20T10:12:33;99356.94;;;29.23;60.25
27144;BME280;14672;50.250;8.312;2023-08-20T10:15:00;99349.47;;;29.43;59.58
27144;BME280;14672;50.250;8.312;2023-08-20T10:17:30;99352.22;;;29.41;59.20
27144;BME280;14672;50.250;8.312;2023-08-20T10:19:58;99351.03;;;29.44;57.88
27144;BME280;14672;50.250;8.312;2023-08-20T10:22:37;99347.19;;;29.56;57.81
27144;BME280;14672;50.250;8.312;2023-08-20T10:25:23;99340.97;;;29.67;59.01
27144;BME280;14672;50.250;8.312;2023-08-20T10:27:49;99343.53;;;29.71;58.01
27144;BME280;14672;50.250;8.312;2023-08-20T10:30:33;99348.69;;;29.85;58.47
27144;BME280;14672;50.250;8.312;2023-08-20T10:32:59;99350.47;;;29.89;56.83
27144;BME280;14672;50.250;8.312;2023-08-20T10:35:46;99341.13;;;29.98;55.98
27144;BME280;14672;50.250;8.312;2023-08-20T10:38:17;99341.13;;;30.05;56.71
27144;BME280;14672;50.250;8.312;2023-08-20T10:43:46;99341.53;;;30.09;54.77
27144;BME280;14672;50.250;8.312;2023-08-20T10:46:21;99331.97;;;30.24;53.94
27144;BME280;14672;50.250;8.312;2023-08-20T10:48:55;99331.56;;;30.35;53.52
27144;BME280;14672;50.250;8.312;2023-08-20T10:51:36;99333.75;;;30.50;53.58
27144;BME280;14672;50.250;8.312;2023-08-20T10:59:22;99347.22;;;30.83;54.07
27144;BME280;14672;50.250;8.312;2023-08-20T11:01:54;99333.91;;;30.90;53.63
27144;BME280;14672;50.250;8.312;2023-08-20T11:04:23;99337.84;;;31.00;51.00
27144;BME280;14672;50.250;8.312;2023-08-20T11:06:59;99332.53;;;30.98;49.36
27144;BME280;14672;50.250;8.312;2023-08-20T11:09:30;99330.59;;;31.08;49.37
27144;BME280;14672;50.250;8.312;2023-08-20T11:11:57;99341.53;;;31.08;50.23
27144;BME280;14672;50.250;8.312;2023-08-20T11:14:23;99333.50;;;31.16;49.55
27144;BME280;14672;50.250;8.312;2023-08-20T11:16:50;99340.50;;;31.28;49.02
27144;BME280;14672;50.250;8.312;2023-08-20T11:19:22;99328.91;;;31.38;48.45
27144;BME280;14672;50.250;8.312;2023-08-20T11:21:48;99333.22;;;31.44;47.69
27144;BME280;14672;50.250;8.312;2023-08-20T11:24:15;99334.75;;;31.60;47.38
27144;BME280;14672;50.250;8.312;2023-08-20T11:26:43;99338.47;;;31.61;46.39
27144;BME280;14672;50.250;8.312;2023-08-20T11:29:12;99325.22;;;31.77;46.99
27144;BME280;14672;50.250;8.312;2023-08-20T11:31:39;99335.97;;;31.82;46.48
27144;BME280;14672;50.250;8.312;2023-08-20T11:34:06;99327.94;;;31.83;45.75
27144;BME280;14672;50.250;8.312;2023-08-20T11:36:33;99336.91;;;31.92;45.52
27144;BME280;14672;50.250;8.312;2023-08-20T11:39:00;99325.47;;;32.04;44.97
27144;BME280;14672;50.250;8.312;2023-08-20T11:41:26;99324.25;;;32.14;45.99
27144;BME280;14672;50.250;8.312;2023-08-20T11:43:53;99333.22;;;32.24;46.88
27144;BME280;14672;50.250;8.312;2023-08-20T11:46:23;99325.53;;;32.29;43.74
27144;BME280;14672;50.250;8.312;2023-08-20T11:49:07;99319.66;;;32.29;45.03
27144;BME280;14672;50.250;8.312;2023-08-20T11:51:37;99331.78;;;32.33;44.60
27144;BME280;14672;50.250;8.312;2023-08-20T11:54:13;99329.72;;;32.43;44.48
27144;BME280;14672;50.250;8.312;2023-08-20T11:56:50;99329.13;;;32.44;45.14
27144;BME280;14672;50.250;8.312;2023-08-20T11:59:20;99321.50;;;32.66;46.45
27144;BME280;14672;50.250;8.312;2023-08-20T12:02:12;99316.03;;;32.63;44.31
27144;BME280;14672;50.250;8.312;2023-08-20T12:04:38;99321.84;;;32.70;42.90
27144;BME280;14672;50.250;8.312;2023-08-20T12:07:14;99327.31;;;32.74;43.25
27144;BME280;14672;50.250;8.312;2023-08-20T12:09:43;99320.91;;;32.85;43.01
27144;BME280;14672;50.250;8.312;2023-08-20T12:12:09;99316.09;;;32.97;44.14
27144;BME280;14672;50.250;8.312;2023-08-20T12:14:36;99321.88;;;33.04;44.40
27144;BME280;14672;50.250;8.312;2023-08-20T12:17:02;99324.59;;;33.10;44.06
27144;BME280;14672;50.250;8.312;2023-08-20T12:19:29;99318.91;;;33.29;43.75
27144;BME280;14672;50.250;8.312;2023-08-20T12:21:54;99320.28;;;33.45;43.36
27144;BME280;14672;50.250;8.312;2023-08-20T12:24:20;99312.28;;;33.56;43.89
27144;BME280;14672;50.250;8.312;2023-08-20T12:26:46;99303.94;;;33.62;43.98
27144;BME280;14672;50.250;8.312;2023-08-20T12:29:12;99304.84;;;33.72;43.44
27144;BME280;14672;50.250;8.312;2023-08-20T12:31:39;99304.44;;;33.85;43.40
27144;BME280;14672;50.250;8.312;2023-08-20T12:34:05;99303.22;;;33.88;41.77
27144;BME280;14672;50.250;8.312;2023-08-20T12:36:31;99297.56;;;34.00;42.75
27144;BME280;14672;50.250;8.312;2023-08-20T12:38:57;99302.09;;;34.10;42.47
27144;BME280;14672;50.250;8.312;2023-08-20T12:41:23;99294.97;;;34.13;42.29
27144;BME280;14672;50.250;8.312;2023-08-20T12:43:49;99287.84;;;34.16;42.10
27144;BME280;14672;50.250;8.312;2023-08-20T12:46:16;99286.47;;;34.17;41.37
27144;BME280;14672;50.250;8.312;2023-08-20T12:48:42;99282.94;;;34.28;42.19
27144;BME280;14672;50.250;8.312;2023-08-20T12:51:08;99283.13;;;34.30;42.24
27144;BME280;14672;50.250;8.312;2023-08-20T12:53:38;99280.22;;;34.50;41.80
27144;BME280;14672;50.250;8.312;2023-08-20T12:56:04;99273.88;;;34.53;41.48
27144;BME280;14672;50.250;8.312;2023-08-20T12:58:29;99276.53;;;34.59;41.87
27144;BME280;14672;50.250;8.312;2023-08-20T13:00:55;99278.38;;;34.64;42.04
27144;BME280;14672;50.250;8.312;2023-08-20T13:03:21;99279.22;;;34.74;41.66
27144;BME280;14672;50.250;8.312;2023-08-20T13:05:47;99276.91;;;34.82;42.36
27144;BME280;14672;50.250;8.312;2023-08-20T13:08:13;99274.44;;;34.78;41.46
27144;BME280;14672;50.250;8.312;2023-08-20T13:10:53;99277.53;;;34.71;40.39
27144;BME280;14672;50.250;8.312;2023-08-20T13:13:21;99268.19;;;34.65;40.72
27144;BME280;14672;50.250;8.312;2023-08-20T13:15:51;99283.53;;;34.63;40.75
27144;BME280;14672;50.250;8.312;2023-08-20T13:18:18;99278.06;;;34.50;40.22